sensor_id;sensor_type;location;lat;lon;timestamp;pressure;altitude;pressure_sealevel;temperature;humidity
48053;BME280;33824;51.600;5.718;2023-02-19T00:01:33;101613.03;;;10.93;100.00
48053;BME280;33824;51.600;5.718;2023-02-19T00:04:04;101613.88;;;10.93;100.00
48053;BME280;33824;51.600;5.718;2023-02-19T00:06:32;101610.91;;;10.96;100.00
48053;BME280;33824;51.600;5.718;2023-02-19T00:08:59;101604.72;;;10.96;100.00
48053;BME280;33824;51.600;5.718;2023-02-19T00:11:27;101612.72;;;10.96;100.00
48053;BME280;33824;51.600;5.718;2023-02-19T00:13:54;101611.41;;;11.00;100.00
48053;BME280;33824;51.600;5.718;2023-02-19T00:16:33;101618.38;;;10.93;100.00
48053;BME280;33824;51.600;5.718;2023-02-19T00:19:01;101609.84;;;10.89;100.00
48053;BME280;33824;51.600;5.718;2023-02-19T00:21:27;101605.03;;;10.93;100.00
48053;BME280;33824;51.600;5.718;2023-02-19T00:23:56;101601.34;;;10.86;100.00
48053;BME280;33824;51.600;5.718;2023-02-19T00:26:22;101609.34;;;10.86;100.00
48053;BME280;33824;51.600;5.718;2023-02-19T00:28:49;101612.00;;;10.86;100.00
48053;BME280;33824;51.600;5.718;2023-02-19T00:33:50;101616.16;;;10.80;100.00
48053;BME280;33824;51.600;5.718;2023-02-19T00:36:16;101614.81;;;10.84;100.00
48053;BME280;33824;51.600;5.718;2023-02-19T00:38:43;101617.66;;;10.83;100.00
48053;BME280;33824;51.600;5.718;2023-02-19T00:41:09;101606.66;;;10.86;100.00
48053;BME280;33824;51.600;5.718;2023-02-19T00:46:19;101606.72;;;10.94;100.00
48053;BME280;33824;51.600;5.718;2023-02-19T00:48:45;101609.13;;;11.05;100.00
48053;BME280;33824;51.600;5.718;2023-02-19T00:51:10;101611.78;;;11.05;100.00
48053;BME280;33824;51.600;5.718;2023-02-19T00:53:36;101615.34;;;11.14;100.00
48053;BME280;33824;51.600;5.718;2023-02-19T00:56:02;101609.69;;;11.17;100.00
48053;BME280;33824;51.600;5.718;2023-02-19T00:58:28;101619.06;;;11.21;100.00
48053;BME280;33824;51.600;5.718;2023-02-19T01:00:54;101615.53;;;11.20;100.00
48053;BME280;33824;51.600;5.718;2023-02-19T01:03:20;101619.19;;;11.19;100.00
48053;BME280;33824;51.600;5.718;2023-02-19T01:05:48;101609.22;;;11.21;100.00
48053;BME280;33824;51.600;5.718;2023-02-19T01:08:13;101620.72;;;11.22;100.00
48053;BME280;33824;51.600;5.718;2023-02-19T01:10:39;101625.22;;;11.21;100.00
48053;BME280;33824;51.600;5.718;2023-02-19T01:13:04;101625.75;;;11.25;100.00
48053;BME280;33824;51.600;5.718;2023-02-19T01:15:31;101627.06;;;11.21;100.00
48053;BME280;33824;51.600;5.718;2023-02-19T01:17:57;101623.41;;;11.22;100.00
48053;BME280;33824;51.600;5.718;2023-02-19T01:20:22;101628.56;;;11.23;100.00
48053;BME280;33824;51.600;5.718;2023-02-19T01:22:48;101635.44;;;11.26;100.00
48053;BME280;33824;51.600;5.718;2023-02-19T01:25:14;101631.41;;;11.22;100.00
48053;BME280;33824;51.600;5.718;2023-02-19T01:27:39;101634.75;;;11.24;100.00
48053;BME280;33824;51.600;5.718;2023-02-19T01:30:05;101626.69;;;11.16;100.00
48053;BME280;33824;51.600;5.718;2023-02-19T01:32:31;101633.91;;;11.23;100.00
48053;BME280;33824;51.600;5.718;2023-02-19T01:34:56;101649.25;;;11.21;100.00
48053;BME280;33824;51.600;5.718;2023-02-19T01:37:21;101636.56;;;11.23;100.00
48053;BME280;33824;51.600;5.718;2023-02-19T01:39:47;101648.94;;;11.24;100.00
48053;BME280;33824;51.600;5.718;2023-02-19T01:42:14;101647.94;;;11.25;100.00
48053;BME280;33824;51.600;5.718;2023-02-19T01:47:10;101636.75;;;11.22;100.00
48053;BME280;33824;51.600;5.718;2023-02-19T01:49:39;101640.91;;;11.24;100.00
48053;BME280;33824;51.600;5.718;2023-02-19T01:52:20;101650.38;;;11.19;100.00
48053;BME280;33824;51.600;5.718;2023-02-19T01:54:47;101658.94;;;11.22;100.00
48053;BME280;33824;51.600;5.718;2023-02-19T01:57:18;101649.72;;;11.17;100.00
48053;BME280;33824;51.600;5.718;2023-02-19T01:59:46;101658.44;;;11.27;100.00
48053;BME280;33824;51.600;5.718;2023-02-19T02:02:14;101651.22;;;11.19;100.00
48053;BME280;33824;51.600;5.718;2023-02-19T02:04:40;101656.94;;;11.24;100.00
48053;BME280;33824;51.600;5.718;2023-02-19T02:07:06;101653.06;;;11.19;100.00
48053;BME280;33824;51.600;5.718;2023-02-19T02:09:52;101649.06;;;11.15;100.00
48053;BME280;33824;51.600;5.718;2023-02-19T02:12:36;101657.22;;;11.13;100.00
48053;BME280;33824;51.600;5.718;2023-02-19T02:15:02;101644.53;;;11.15;100.00
48053;BME280;33824;51.600;5.718;2023-02-19T02:20:32;101638.88;;;10.92;100.00
48053;BME280;33824;51.600;5.718;2023-02-19T02:23:21;101636.41;;;10.91;99.96
48053;BME280;33824;51.600;5.718;2023-02-19T02:29:23;101648.38;;;10.87;100.00
48053;BME280;33824;51.600;5.718;2023-02-19T02:32:03;101648.25;;;10.96;99.85
48053;BME280;33824;51.600;5.718;2023-02-19T02:34:38;101649.66;;;11.08;100.00
48053;BME280;33824;51.600;5.718;2023-02-19T02:37:06;101652.19;;;11.10;100.00
48053;BME280;33824;51.600;5.718;2023-02-19T02:39:32;101648.22;;;11.14;100.00
48053;BME280;33824;51.600;5.718;2023-02-19T02:41:59;101642.88;;;11.14;100.00
48053;BME280;33824;51.600;5.718;2023-02-19T02:44:43;101647.69;;;11.11;100.00
48053;BME280;33824;51.600;5.718;2023-02-19T02:47:36;101650.31;;;11.02;100.00
48053;BME280;33824;51.600;5.718;2023-02-19T02:50:44;101653.97;;;10.76;99.33
48053;BME280;33824;51.600;5.718;2023-02-19T02:53:15;101657.47;;;11.02;99.56
48053;BME280;33824;51.600;5.718;2023-02-19T02:56:02;101666.66;;;10.99;100.00
48053;BME280;33824;51.600;5.718;2023-02-19T02:58:28;101663.00;;;11.08;100.00
48053;BME280;33824;51.600;5.718;2023-02-19T03:01:00;101668.94;;;10.94;100.00
48053;BME280;33824;51.600;5.718;2023-02-19T03:03:48;101665.75;;;10.91;100.00
48053;BME280;33824;51.600;5.718;2023-02-19T03:06:19;101663.91;;;10.91;100.00
48053;BME280;33824;51.600;5.718;2023-02-19T03:08:52;101666.72;;;10.90;100.00
48053;BME280;33824;51.600;5.718;2023-02-19T03:11:19;101671.16;;;10.99;100.00
48053;BME280;33824;51.600;5.718;2023-02-19T03:14:21;101664.38;;;10.87;99.41
48053;BME280;33824;51.600;5.718;2023-02-19T03:17:55;101673.31;;;10.78;99.99
48053;BME280;33824;51.600;5.718;2023-02-19T03:20:40;101663.53;;;10.86;100.00
48053;BME280;33824;51.600;5.718;2023-02-19T03:23:09;101686.38;;;10.89;100.00
48053;BME280;33824;51.600;5.718;2023-02-19T03:25:37;101687.22;;;10.89;100.00
48053;BME280;33824;51.600;5.718;2023-02-19T03:28:25;101688.41;;;10.87;100.00
48053;BME280;33824;51.600;5.718;2023-02-19T03:31:15;101673.38;;;10.86;100.00
48053;BME280;33824;51.600;5.718;2023-02-19T03:33:44;101686.84;;;10.84;100.00
48053;BME280;33824;51.600;5.718;2023-02-19T03:36:13;101684.88;;;10.86;100.00
48053;BME280;33824;51.600;5.718;2023-02-19T03:39:07;101677.06;;;10.67;100.00
48053;BME280;33824;51.600;5.718;2023-02-19T03:41:43;101690.47;;;10.75;100.00
48053;BME280;33824;51.600;5.718;2023-02-19T03:44:23;101692.69;;;10.80;100.00
48053;BME280;33824;51.600;5.718;2023-02-19T03:47:11;101685.88;;;10.85;100.00
48053;BME280;33824;51.600;5.718;2023-02-19T03:49:48;101683.31;;;10.76;99.67
48053;BME280;33824;51.600;5.718;2023-02-19T03:55:17;101706.91;;;10.88;99.49
48053;BME280;33824;51.600;5.718;2023-02-19T04:00:22;101714.31;;;10.77;100.00
48053;BME280;33824;51.600;5.718;2023-02-19T04:02:57;101723.63;;;10.73;100.00
48053;BME280;33824;51.600;5.718;2023-02-19T04:05:29;101718.34;;;10.81;99.69
48053;BME280;33824;51.600;5.718;2023-02-19T04:08:03;101719.72;;;10.85;99.55
48053;BME280;33824;51.600;5.718;2023-02-19T04:10:30;101739.00;;;10.43;100.00
48053;BME280;33824;51.600;5.718;2023-02-19T04:13:05;101728.97;;;10.73;100.00
48053;BME280;33824;51.600;5.718;2023-02-19T04:15:33;101741.38;;;10.82;100.00
48053;BME280;33824;51.600;5.718;2023-02-19T04:18:03;101732.38;;;10.83;100.00
48053;BME280;33824;51.600;5.718;2023-02-19T04:20:33;101743.88;;;10.48;100.00
48053;BME280;33824;51.600;5.718;2023-02-19T04:23:01;101747.69;;;10.81;100.00
48053;BME280;33824;51.600;5.718;2023-02-19T04:25:28;101752.94;;;10.90;99.53
48053;BME280;33824;51.600;5.718;2023-02-19T04:27:54;101747.44;;;10.92;99.36
48053;BME280;33824;51.600;5.718;2023-02-19T04:30:23;101748.16;;;10.94;98.80
48053;BME280;33824;51.600;5.718;2023-02-19T04:32:49;101758.44;;;10.71;99.63
48053;BME280;33824;51.600;5.718;2023-02-19T04:35:15;101754.19;;;10.61;100.00
48053;BME280;33824;51.600;5.718;2023-02-19T04:37:40;101752.41;;;10.51;100.00
48053;BME280;33824;51.600;5.718;2023-02-19T04:40:06;101754.31;;;10.59;100.00
48053;BME280;33824;51.600;5.718;2023-02-19T04:42:32;101771.84;;;10.62;100.00
48053;BME280;33824;51.600;5.718;2023-02-19T04:44:58;101766.91;;;10.67;100.00
48053;BME280;33824;51.600;5.718;2023-02-19T04:47:23;101765.06;;;10.67;100.00
48053;BME280;33824;51.600;5.718;2023-02-19T04:49:49;101774.59;;;10.70;100.00
48053;BME280;33824;51.600;5.718;2023-02-19T04:52:14;101782.16;;;10.74;100.00
48053;BME280;33824;51.600;5.718;2023-02-19T04:54:40;101784.97;;;10.73;100.00
48053;BME280;33824;51.600;5.718;2023-02-19T04:57:05;101795.16;;;10.77;99.65
48053;BME280;33824;51.600;5.718;2023-02-19T04:59:31;101795.34;;;10.76;100.00
48053;BME280;33824;51.600;5.718;2023-02-19T05:01:56;101800.06;;;10.82;99.90
48053;BME280;33824;51.600;5.718;2023-02-19T05:04:22;101805.25;;;10.83;99.64
48053;BME280;33824;51.600;5.718;2023-02-19T05:06:48;101809.53;;;10.76;99.64
48053;BME280;33824;51.600;5.718;2023-02-19T05:09:14;101818.13;;;10.70;99.25
48053;BME280;33824;51.600;5.718;2023-02-19T05:11:40;101821.97;;;10.58;100.00
48053;BME280;33824;51.600;5.718;2023-02-19T05:14:06;101825.13;;;10.53;100.00
48053;BME280;33824;51.600;5.718;2023-02-19T05:16:31;101829.91;;;10.50;100.00
48053;BME280;33824;51.600;5.718;2023-02-19T05:18:57;101828.69;;;10.44;100.00
48053;BME280;33824;51.600;5.718;2023-02-19T05:21:23;101831.19;;;10.46;100.00
48053;BME280;33824;51.600;5.718;2023-02-19T05:23:49;101837.50;;;10.45;100.00
48053;BME280;33824;51.600;5.718;2023-02-19T05:26:17;101831.41;;;10.35;100.00
48053;BME280;33824;51.600;5.718;2023-02-19T05:28:45;101835.06;;;10.34;100.00
48053;BME280;33824;51.600;5.718;2023-02-19T05:31:11;101831.84;;;10.30;100.00
48053;BME280;33824;51.600;5.718;2023-02-19T05:33:37;101825.81;;;10.28;100.00
48053;BME280;33824;51.600;5.718;2023-02-19T05:36:21;101837.66;;;10.16;100.00
48053;BME280;33824;51.600;5.718;2023-02-19T05:38:51;101838.19;;;10.20;100.00
48053;BME280;33824;51.600;5.718;2023-02-19T05:41:19;101843.59;;;10.37;100.00
48053;BME280;33824;51.600;5.718;2023-02-19T05:43:46;101834.75;;;10.37;100.00
48053;BME280;33824;51.600;5.718;2023-02-19T05:46:14;101843.81;;;10.44;100.00
48053;BME280;33824;51.600;5.718;2023-02-19T05:48:40;101841.88;;;10.46;100.00
48053;BME280;33824;51.600;5.718;2023-02-19T05:51:09;101842.00;;;10.44;100.00
48053;BME280;33824;51.600;5.718;2023-02-19T05:53:35;101839.78;;;10.40;100.00
48053;BME280;33824;51.600;5.718;2023-02-19T05:56:01;101845.06;;;10.49;100.00
48053;BME280;33824;51.600;5.718;2023-02-19T05:58:27;101848.41;;;10.51;100.00
48053;BME280;33824;51.600;5.718;2023-02-19T06:00:54;101856.31;;;10.43;100.00
48053;BME280;33824;51.600;5.718;2023-02-19T06:03:20;101851.69;;;10.45;100.00
48053;BME280;33824;51.600;5.718;2023-02-19T06:05:48;101846.25;;;10.37;100.00
48053;BME280;33824;51.600;5.718;2023-02-19T06:08:16;101849.03;;;10.45;100.00
48053;BME280;33824;51.600;5.718;2023-02-19T06:10:42;101854.19;;;10.47;100.00
48053;BME280;33824;51.600;5.718;2023-02-19T06:13:08;101856.41;;;10.51;100.00
48053;BME280;33824;51.600;5.718;2023-02-19T06:15:35;101860.53;;;10.46;100.00
48053;BME280;33824;51.600;5.718;2023-02-19T06:18:02;101859.16;;;10.42;100.00
48053;BME280;33824;51.600;5.718;2023-02-19T06:20:28;101864.50;;;10.32;100.00
48053;BME280;33824;51.600;5.718;2023-02-19T06:22:54;101870.88;;;10.22;100.00
48053;BME280;33824;51.600;5.718;2023-02-19T06:25:19;101870.63;;;10.15;100.00
48053;BME280;33824;51.600;5.718;2023-02-19T06:27:45;101868.81;;;10.06;100.00
48053;BME280;33824;51.600;5.718;2023-02-19T06:30:10;101870.25;;;10.00;100.00
48053;BME280;33824;51.600;5.718;2023-02-19T06:32:36;101880.06;;;10.00;100.00
48053;BME280;33824;51.600;5.718;2023-02-19T06:35:02;101882.84;;;10.08;100.00
48053;BME280;33824;51.600;5.718;2023-02-19T06:37:29;101885.88;;;10.13;100.00
48053;BME280;33824;51.600;5.718;2023-02-19T06:39:54;101884.66;;;10.07;100.00
48053;BME280;33824;51.600;5.718;2023-02-19T06:42:20;101904.97;;;10.08;100.00
48053;BME280;33824;51.600;5.718;2023-02-19T06:44:45;101914.22;;;10.14;100.00
48053;BME280;33824;51.600;5.718;2023-02-19T06:47:11;101921.28;;;10.15;100.00
48053;BME280;33824;51.600;5.718;2023-02-19T06:49:38;101912.81;;;10.20;100.00
48053;BME280;33824;51.600;5.718;2023-02-19T06:52:04;101918.00;;;10.21;100.00
48053;BME280;33824;51.600;5.718;2023-02-19T06:54:29;101917.88;;;10.23;100.00
48053;BME280;33824;51.600;5.718;2023-02-19T06:56:55;101914.06;;;10.25;100.00
48053;BME280;33824;51.600;5.718;2023-02-19T06:59:23;101917.16;;;10.30;100.00
48053;BME280;33824;51.600;5.718;2023-02-19T07:01:49;101912.75;;;10.39;100.00
48053;BME280;33824;51.600;5.718;2023-02-19T07:04:15;101909.94;;;10.40;100.00
48053;BME280;33824;51.600;5.718;2023-02-19T07:06:40;101913.59;;;10.39;100.00
48053;BME280;33824;51.600;5.718;2023-02-19T07:09:07;101922.44;;;10.40;100.00
48053;BME280;33824;51.600;5.718;2023-02-19T07:11:34;101938.00;;;10.44;100.00
48053;BME280;33824;51.600;5.718;2023-02-19T07:14:02;101931.13;;;10.42;100.00
48053;BME280;33824;51.600;5.718;2023-02-19T07:16:28;101939.97;;;10.42;100.00
48053;BME280;33824;51.600;5.718;2023-02-19T07:18:58;101949.25;;;10.38;100.00
48053;BME280;33824;51.600;5.718;2023-02-19T07:21:24;101946.66;;;10.46;100.00
48053;BME280;33824;51.600;5.718;2023-02-19T07:23:49;101941.50;;;10.45;100.00
48053;BME280;33824;51.600;5.718;2023-02-19T07:26:16;101949.94;;;10.40;100.00
48053;BME280;33824;51.600;5.718;2023-02-19T07:28:44;101962.00;;;10.44;100.00
48053;BME280;33824;51.600;5.718;2023-02-19T07:31:10;101963.13;;;10.42;100.00
48053;BME280;33824;51.600;5.718;2023-02-19T07:33:36;101970.28;;;10.41;100.00
48053;BME280;33824;51.600;5.718;2023-02-19T07:36:02;101980.25;;;10.39;100.00
48053;BME280;33824;51.600;5.718;2023-02-19T07:38:27;101977.03;;;10.36;100.00
48053;BME280;33824;51.600;5.718;2023-02-19T07:43:20;101987.56;;;10.37;100.00
48053;BME280;33824;51.600;5.718;2023-02-19T07:45:46;101992.47;;;10.42;100.00
48053;BME280;33824;51.600;5.718;2023-02-19T07:48:12;101998.63;;;10.42;100.00
48053;BME280;33824;51.600;5.718;2023-02-19T07:50:37;101997.50;;;10.45;100.00
48053;BME280;33824;51.600;5.718;2023-02-19T07:53:03;101997.94;;;10.40;100.00
48053;BME280;33824;51.600;5.718;2023-02-19T07:55:31;102003.69;;;10.36;100.00
48053;BME280;33824;51.600;5.718;2023-02-19T07:57:57;102015.50;;;10.24;100.00
48053;BME280;33824;51.600;5.718;2023-02-19T08:00:23;102008.94;;;10.18;100.00
48053;BME280;33824;51.600;5.718;2023-02-19T08:02:51;102019.03;;;10.15;100.00
48053;BME280;33824;51.600;5.718;2023-02-19T08:05:40;102021.81;;;10.03;100.00
48053;BME280;33824;51.600;5.718;2023-02-19T08:08:07;102031.47;;;10.04;100.00
48053;BME280;33824;51.600;5.718;2023-02-19T08:10:33;102042.72;;;10.08;100.00
48053;BME280;33824;51.600;5.718;2023-02-19T08:13:17;102046.22;;;9.99;100.00
48053;BME280;33824;51.600;5.718;2023-02-19T08:18:30;102058.03;;;9.96;100.00
48053;BME280;33824;51.600;5.718;2023-02-19T08:20:57;102056.44;;;9.94;100.00
48053;BME280;33824;51.600;5.718;2023-02-19T08:23:23;102052.41;;;9.99;100.00
48053;BME280;33824;51.600;5.718;2023-02-19T08:25:51;102054.50;;;9.96;100.00
48053;BME280;33824;51.600;5.718;2023-02-19T08:28:17;102060.53;;;9.98;100.00
48053;BME280;33824;51.600;5.718;2023-02-19T08:30:45;102061.50;;;9.97;100.00
48053;BME280;33824;51.600;5.718;2023-02-19T08:33:12;102060.22;;;10.01;100.00
48053;BME280;33824;51.600;5.718;2023-02-19T08:35:38;102052.41;;;9.99;100.00
48053;BME280;33824;51.600;5.718;2023-02-19T08:38:05;102063.03;;;10.09;100.00
48053;BME280;33824;51.600;5.718;2023-02-19T08:40:32;102060.53;;;10.07;100.00
48053;BME280;33824;51.600;5.718;2023-02-19T08:43:05;102047.34;;;10.06;100.00
48053;BME280;33824;51.600;5.718;2023-02-19T08:45:31;102050.03;;;10.16;100.00
48053;BME280;33824;51.600;5.718;2023-02-19T08:47:57;102060.53;;;10.17;100.00
48053;BME280;33824;51.600;5.718;2023-02-19T08:50:24;102061.50;;;10.16;100.00
48053;BME280;33824;51.600;5.718;2023-02-19T08:52:49;102074.13;;;10.14;100.00
48053;BME280;33824;51.600;5.718;2023-02-19T08:55:15;102074.72;;;10.18;100.00
48053;BME280;33824;51.600;5.718;2023-02-19T08:57:40;102076.13;;;10.22;100.00
48053;BME280;33824;51.600;5.718;2023-02-19T09:00:07;102075.09;;;10.13;100.00
48053;BME280;33824;51.600;5.718;2023-02-19T09:02:33;102091.69;;;10.17;100.00
48053;BME280;33824;51.600;5.718;2023-02-19T09:05:00;102091.13;;;10.23;100.00
48053;BME280;33824;51.600;5.718;2023-02-19T09:07:25;102091.53;;;10.28;100.00
48053;BME280;33824;51.600;5.718;2023-02-19T09:09:51;102095.19;;;10.27;100.00
48053;BME280;33824;51.600;5.718;2023-02-19T09:12:16;102092.94;;;10.32;100.00
48053;BME280;33824;51.600;5.718;2023-02-19T09:14:42;102095.06;;;10.38;100.00
48053;BME280;33824;51.600;5.718;2023-02-19T09:17:08;102105.41;;;10.31;100.00
48053;BME280;33824;51.600;5.718;2023-02-19T09:19:34;102105.41;;;10.31;100.00
48053;BME280;33824;51.600;5.718;2023-02-19T09:21:59;102103.03;;;10.28;100.00
48053;BME280;33824;51.600;5.718;2023-02-19T09:24:25;102112.00;;;10.27;100.00
48053;BME280;33824;51.600;5.718;2023-02-19T09:26:52;102101.38;;;10.18;100.00
48053;BME280;33824;51.600;5.718;2023-02-19T09:29:20;102096.41;;;10.13;100.00
48053;BME280;33824;51.600;5.718;2023-02-19T09:31:45;102103.91;;;10.19;100.00
48053;BME280;33824;51.600;5.718;2023-02-19T09:34:11;102111.19;;;10.17;100.00
48053;BME280;33824;51.600;5.718;2023-02-19T09:36:37;102101.19;;;10.09;100.00
48053;BME280;33824;51.600;5.718;2023-02-19T09:39:04;102115.13;;;10.23;100.00
48053;BME280;33824;51.600;5.718;2023-02-19T09:41:37;102117.63;;;10.24;100.00
48053;BME280;33824;51.600;5.718;2023-02-19T09:44:05;102112.72;;;10.20;100.00
48053;BME280;33824;51.600;5.718;2023-02-19T09:46:45;102117.06;;;10.21;100.00
48053;BME280;33824;51.600;5.718;2023-02-19T09:49:18;102125.94;;;10.31;100.00
48053;BME280;33824;51.600;5.718;2023-02-19T09:51:59;102134.06;;;10.29;100.00
48053;BME280;33824;51.600;5.718;2023-02-19T09:54:29;102138.69;;;10.37;100.00
48053;BME280;33824;51.600;5.718;2023-02-19T09:56:59;102158.34;;;10.45;100.00
48053;BME280;33824;51.600;5.718;2023-02-19T10:02:03;102169.84;;;10.46;100.00
48053;BME280;33824;51.600;5.718;2023-02-19T10:04:29;102165.63;;;10.53;100.00
48053;BME280;33824;51.600;5.718;2023-02-19T10:06:57;102176.56;;;10.59;100.00
48053;BME280;33824;51.600;5.718;2023-02-19T10:09:29;102174.00;;;10.77;100.00
48053;BME280;33824;51.600;5.718;2023-02-19T10:11:55;102183.69;;;10.88;100.00
48053;BME280;33824;51.600;5.718;2023-02-19T10:14:35;102187.88;;;10.90;100.00
48053;BME280;33824;51.600;5.718;2023-02-19T10:17:04;102190.09;;;11.04;100.00
48053;BME280;33824;51.600;5.718;2023-02-19T10:19:31;102193.25;;;11.27;100.00
48053;BME280;33824;51.600;5.718;2023-02-19T10:21:58;102195.31;;;11.43;100.00
48053;BME280;33824;51.600;5.718;2023-02-19T10:24:27;102185.19;;;11.46;100.00
48053;BME280;33824;51.600;5.718;2023-02-19T10:26:54;102202.78;;;11.39;100.00
48053;BME280;33824;51.600;5.718;2023-02-19T10:29:20;102209.63;;;11.51;100.00
48053;BME280;33824;51.600;5.718;2023-02-19T10:31:46;102213.50;;;11.67;100.00
48053;BME280;33824;51.600;5.718;2023-02-19T10:34:17;102214.84;;;11.80;100.00
48053;BME280;33824;51.600;5.718;2023-02-19T10:36:46;102208.00;;;11.95;100.00
48053;BME280;33824;51.600;5.718;2023-02-19T10:41:50;102232.16;;;12.03;99.42
48053;BME280;33824;51.600;5.718;2023-02-19T10:44:27;102231.97;;;11.87;96.11
48053;BME280;33824;51.600;5.718;2023-02-19T10:46:56;102230.09;;;11.97;96.69
48053;BME280;33824;51.600;5.718;2023-02-19T10:49:36;102229.03;;;11.90;95.03
48053;BME280;33824;51.600;5.718;2023-02-19T10:52:13;102244.56;;;12.05;95.17
48053;BME280;33824;51.600;5.718;2023-02-19T10:54:43;102243.72;;;12.04;95.90
48053;BME280;33824;51.600;5.718;2023-02-19T11:00:20;102250.84;;;12.13;95.30
48053;BME280;33824;51.600;5.718;2023-02-19T11:02:47;102248.06;;;12.05;94.13
48053;BME280;33824;51.600;5.718;2023-02-19T11:05:18;102246.81;;;11.99;95.10
48053;BME280;33824;51.600;5.718;2023-02-19T11:07:47;102256.22;;;12.03;94.78
48053;BME280;33824;51.600;5.718;2023-02-19T11:10:29;102249.19;;;12.02;94.99
48053;BME280;33824;51.600;5.718;2023-02-19T11:12:59;102241.91;;;12.22;95.65
48053;BME280;33824;51.600;5.718;2023-02-19T11:15:29;102246.81;;;12.44;96.00
48053;BME280;33824;51.600;5.718;2023-02-19T11:20:45;102237.41;;;12.40;93.16
48053;BME280;33824;51.600;5.718;2023-02-19T11:23:18;102232.69;;;12.34;93.33
48053;BME280;33824;51.600;5.718;2023-02-19T11:25:51;102230.13;;;12.33;91.95
48053;BME280;33824;51.600;5.718;2023-02-19T11:28:37;102227.09;;;12.28;91.78
48053;BME280;33824;51.600;5.718;2023-02-19T11:33:52;102229.59;;;12.29;91.00
48053;BME280;33824;51.600;5.718;2023-02-19T11:38:54;102227.63;;;12.31;89.88
48053;BME280;33824;51.600;5.718;2023-02-19T11:47:21;102222.41;;;12.12;88.43
48053;BME280;33824;51.600;5.718;2023-02-19T11:52:46;102227.22;;;11.81;89.16
48053;BME280;33824;51.600;5.718;2023-02-19T11:57:57;102232.50;;;11.64;90.05
48053;BME280;33824;51.600;5.718;2023-02-19T12:00:43;102243.19;;;11.64;91.08
48053;BME280;33824;51.600;5.718;2023-02-19T12:06:15;102240.84;;;11.51;90.97
48053;BME280;33824;51.600;5.718;2023-02-19T12:11:48;102235.84;;;11.66;90.55
48053;BME280;33824;51.600;5.718;2023-02-19T12:17:39;102235.31;;;11.72;88.16
48053;BME280;33824;51.600;5.718;2023-02-19T12:20:24;102233.47;;;11.72;88.92
48053;BME280;33824;51.600;5.718;2023-02-19T12:23:15;102239.06;;;11.69;88.69
48053;BME280;33824;51.600;5.718;2023-02-19T12:25:54;102239.25;;;11.68;89.45
48053;BME280;33824;51.600;5.718;2023-02-19T12:28:51;102239.84;;;11.52;89.67
48053;BME280;33824;51.600;5.718;2023-02-19T12:34:34;102245.59;;;11.57;88.22
48053;BME280;33824;51.600;5.718;2023-02-19T12:37:14;102241.75;;;11.69;89.14
48053;BME280;33824;51.600;5.718;2023-02-19T12:40:09;102235.78;;;11.85;89.63
48053;BME280;33824;51.600;5.718;2023-02-19T12:45:39;102237.25;;;11.70;89.39
48053;BME280;33824;51.600;5.718;2023-02-19T12:48:15;102243.88;;;11.66;89.41
48053;BME280;33824;51.600;5.718;2023-02-19T12:50:44;102243.75;;;11.57;89.68
48053;BME280;33824;51.600;5.718;2023-02-19T12:53:23;102240.97;;;11.49;89.53
48053;BME280;33824;51.600;5.718;2023-02-19T12:55:53;102239.38;;;11.20;88.55
48053;BME280;33824;51.600;5.718;2023-02-19T12:58:44;102247.72;;;11.53;89.57
48053;BME280;33824;51.600;5.718;2023-02-19T13:01:18;102249.47;;;11.82;90.17
48053;BME280;33824;51.600;5.718;2023-02-19T13:06:47;102249.22;;;11.75;87.24
48053;BME280;33824;51.600;5.718;2023-02-19T13:09:49;102251.28;;;11.81;85.60
48053;BME280;33824;51.600;5.718;2023-02-19T13:12:25;102265.06;;;11.86;86.39
48053;BME280;33824;51.600;5.718;2023-02-19T13:15:13;102260.72;;;11.76;85.03
48053;BME280;33824;51.600;5.718;2023-02-19T13:17:43;102265.09;;;11.77;86.28
48053;BME280;33824;51.600;5.718;2023-02-19T13:20:24;102271.44;;;11.66;85.31
48053;BME280;33824;51.600;5.718;2023-02-19T13:28:55;102276.78;;;11.66;85.86
48053;BME280;33824;51.600;5.718;2023-02-19T13:35:01;102297.72;;;11.61;83.27
48053;BME280;33824;51.600;5.718;2023-02-19T13:37:32;102295.34;;;11.58;83.29
48053;BME280;33824;51.600;5.718;2023-02-19T13:40:03;102297.91;;;11.50;83.03
48053;BME280;33824;51.600;5.718;2023-02-19T13:42:34;102305.38;;;11.46;82.98
48053;BME280;33824;51.600;5.718;2023-02-19T13:45:02;102312.25;;;11.49;83.28
48053;BME280;33824;51.600;5.718;2023-02-19T13:50:28;102311.88;;;11.25;82.84
48053;BME280;33824;51.600;5.718;2023-02-19T13:52:55;102326.22;;;11.33;84.25
48053;BME280;33824;51.600;5.718;2023-02-19T13:55:44;102319.47;;;11.20;83.87
48053;BME280;33824;51.600;5.718;2023-02-19T13:59:03;102326.66;;;11.10;84.00
48053;BME280;33824;51.600;5.718;2023-02-19T14:12:04;102332.13;;;10.98;85.74
48053;BME280;33824;51.600;5.718;2023-02-19T14:19:46;102350.31;;;10.45;85.76
48053;BME280;33824;51.600;5.718;2023-02-19T14:22:49;102352.66;;;10.29;87.06
48053;BME280;33824;51.600;5.718;2023-02-19T14:27:52;102339.09;;;10.42;87.07
48053;BME280;33824;51.600;5.718;2023-02-19T14:30:20;102358.00;;;10.39;86.89
48053;BME280;33824;51.600;5.718;2023-02-19T14:32:47;102355.22;;;10.40;87.71
48053;BME280;33824;51.600;5.718;2023-02-19T14:35:18;102357.59;;;10.34;87.30
48053;BME280;33824;51.600;5.718;2023-02-19T14:37:44;102354.59;;;10.27;87.79
48053;BME280;33824;51.600;5.718;2023-02-19T14:40:19;102354.25;;;10.11;87.21
48053;BME280;33824;51.600;5.718;2023-02-19T14:42:46;102346.88;;;10.24;88.28